sensor_id;sensor_type;location;lat;lon;timestamp;P1;durP1;ratioP1;P2;durP2;ratioP2
75506;SDS011;64086;43.220;27.878;2024-02-21T00:00:12;21.67;;;15.15;;
75506;SDS011;64086;43.220;27.878;2024-02-21T00:02:38;22.05;;;16.00;;
75506;SDS011;64086;43.220;27.878;2024-02-21T00:05:04;21.88;;;16.58;;
75506;SDS011;64086;43.220;27.878;2024-02-21T00:07:30;19.25;;;15.70;;
75506;SDS011;64086;43.220;27.878;2024-02-21T00:09:55;19.92;;;15.40;;
75506;SDS011;64086;43.220;27.878;2024-02-21T00:12:21;22.42;;;14.88;;
75506;SDS011;64086;43.220;27.878;2024-02-21T00:14:46;20.55;;;14.82;;
75506;SDS011;64086;43.220;27.878;2024-02-21T00:17:12;19.40;;;14.60;;
75506;SDS011;64086;43.220;27.878;2024-02-21T00:19:37;21.25;;;16.23;;
75506;SDS011;64086;43.220;27.878;2024-02-21T00:22:03;21.27;;;14.98;;
75506;SDS011;64086;43.220;27.878;2024-02-21T00:24:29;19.83;;;15.27;;
75506;SDS011;64086;43.220;27.878;2024-02-21T00:26:54;23.67;;;15.38;;
75506;SDS011;64086;43.220;27.878;2024-02-21T00:29:20;24.02;;;16.02;;
75506;SDS011;64086;43.220;27.878;2024-02-21T00:31:45;25.40;;;16.15;;
75506;SDS011;64086;43.220;27.878;2024-02-21T00:34:11;27.85;;;16.95;;
75506;SDS011;64086;43.220;27.878;2024-02-21T00:36:38;23.02;;;15.82;;
75506;SDS011;64086;43.220;27.878;2024-02-21T00:39:03;21.67;;;16.15;;
75506;SDS011;64086;43.220;27.878;2024-02-21T00:41:29;21.30;;;17.58;;
75506;SDS011;64086;43.220;27.878;2024-02-21T00:43:54;22.40;;;16.30;;
75506;SDS011;64086;43.220;27.878;2024-02-21T00:46:20;22.85;;;16.55;;
75506;SDS011;64086;43.220;27.878;2024-02-21T00:48:45;21.33;;;15.70;;
75506;SDS011;64086;43.220;27.878;2024-02-21T00:51:11;23.20;;;17.40;;
75506;SDS011;64086;43.220;27.878;2024-02-21T00:53:36;25.98;;;17.45;;
75506;SDS011;64086;43.220;27.878;2024-02-21T00:56:04;23.70;;;16.80;;
75506;SDS011;64086;43.220;27.878;2024-02-21T00:58:30;21.92;;;16.70;;
75506;SDS011;64086;43.220;27.878;2024-02-21T01:00:56;24.40;;;16.55;;
75506;SDS011;64086;43.220;27.878;2024-02-21T01:03:21;22.27;;;16.67;;
75506;SDS011;64086;43.220;27.878;2024-02-21T01:05:47;22.75;;;16.30;;
75506;SDS011;64086;43.220;27.878;2024-02-21T01:08:12;24.75;;;16.85;;
75506;SDS011;64086;43.220;27.878;2024-02-21T01:10:38;22.83;;;16.10;;
75506;SDS011;64086;43.220;27.878;2024-02-21T01:13:03;25.92;;;16.17;;
75506;SDS011;64086;43.220;27.878;2024-02-21T01:15:29;27.58;;;17.70;;
75506;SDS011;64086;43.220;27.878;2024-02-21T01:17:54;28.73;;;17.33;;
75506;SDS011;64086;43.220;27.878;2024-02-21T01:20:20;22.08;;;17.13;;
75506;SDS011;64086;43.220;27.878;2024-02-21T01:22:46;24.65;;;16.75;;
75506;SDS011;64086;43.220;27.878;2024-02-21T01:25:12;27.48;;;17.63;;
75506;SDS011;64086;43.220;27.878;2024-02-21T01:27:37;27.50;;;17.92;;
75506;SDS011;64086;43.220;27.878;2024-02-21T01:30:03;24.20;;;18.13;;
75506;SDS011;64086;43.220;27.878;2024-02-21T01:32:29;24.48;;;17.80;;
75506;SDS011;64086;43.220;27.878;2024-02-21T01:34:54;26.85;;;18.38;;
75506;SDS011;64086;43.220;27.878;2024-02-21T01:37:20;27.58;;;18.25;;
75506;SDS011;64086;43.220;27.878;2024-02-21T01:39:45;25.25;;;17.73;;
75506;SDS011;64086;43.220;27.878;2024-02-21T01:42:11;23.73;;;17.40;;
75506;SDS011;64086;43.220;27.878;2024-02-21T01:44:36;25.65;;;16.95;;
75506;SDS011;64086;43.220;27.878;2024-02-21T01:47:03;24.77;;;17.58;;
75506;SDS011;64086;43.220;27.878;2024-02-21T01:49:28;29.50;;;18.77;;
75506;SDS011;64086;43.220;27.878;2024-02-21T01:51:54;26.67;;;17.88;;
75506;SDS011;64086;43.220;27.878;2024-02-21T01:54:20;24.60;;;17.17;;
75506;SDS011;64086;43.220;27.878;2024-02-21T01:56:46;25.98;;;18.45;;
75506;SDS011;64086;43.220;27.878;2024-02-21T01:59:12;25.75;;;18.63;;
75506;SDS011;64086;43.220;27.878;2024-02-21T02:01:38;27.63;;;18.58;;
75506;SDS011;64086;43.220;27.878;2024-02-21T02:04:05;25.10;;;18.52;;
75506;SDS011;64086;43.220;27.878;2024-02-21T02:06:31;27.77;;;17.60;;
75506;SDS011;64086;43.220;27.878;2024-02-21T02:08:56;25.27;;;18.70;;
75506;SDS011;64086;43.220;27.878;2024-02-21T02:11:22;27.17;;;18.67;;
75506;SDS011;64086;43.220;27.878;2024-02-21T02:13:48;28.63;;;18.10;;
75506;SDS011;64086;43.220;27.878;2024-02-21T02:16:13;27.60;;;19.13;;
75506;SDS011;64086;43.220;27.878;2024-02-21T02:18:39;25.05;;;18.30;;
75506;SDS011;64086;43.220;27.878;2024-02-21T02:21:04;26.48;;;18.23;;
75506;SDS011;64086;43.220;27.878;2024-02-21T02:23:42;23.95;;;17.75;;
75506;SDS011;64086;43.220;27.878;2024-02-21T02:26:07;28.42;;;17.73;;
75506;SDS011;64086;43.220;27.878;2024-02-21T02:28:33;25.98;;;18.77;;
75506;SDS011;64086;43.220;27.878;2024-02-21T02:30:58;24.75;;;16.85;;
75506;SDS011;64086;43.220;27.878;2024-02-21T02:33:24;25.42;;;18.10;;
75506;SDS011;64086;43.220;27.878;2024-02-21T02:35:49;27.27;;;18.17;;
75506;SDS011;64086;43.220;27.878;2024-02-21T02:38:16;29.65;;;18.30;;
75506;SDS011;64086;43.220;27.878;2024-02-21T02:40:41;25.63;;;18.40;;
75506;SDS011;64086;43.220;27.878;2024-02-21T02:43:07;25.02;;;17.75;;
75506;SDS011;64086;43.220;27.878;2024-02-21T02:45:33;25.50;;;17.75;;
75506;SDS011;64086;43.220;27.878;2024-02-21T02:47:58;26.73;;;17.60;;
75506;SDS011;64086;43.220;27.878;2024-02-21T02:50:25;26.67;;;16.73;;
75506;SDS011;64086;43.220;27.878;2024-02-21T02:52:51;26.52;;;16.23;;
75506;SDS011;64086;43.220;27.878;2024-02-21T02:55:17;24.17;;;15.60;;
75506;SDS011;64086;43.220;27.878;2024-02-21T02:57:43;30.75;;;17.55;;
75506;SDS011;64086;43.220;27.878;2024-02-21T03:00:10;26.67;;;16.30;;
75506;SDS011;64086;43.220;27.878;2024-02-21T03:02:37;26.50;;;17.00;;
75506;SDS011;64086;43.220;27.878;2024-02-21T03:05:03;26.15;;;16.42;;
75506;SDS011;64086;43.220;27.878;2024-02-21T03:07:40;27.77;;;17.10;;
75506;SDS011;64086;43.220;27.878;2024-02-21T03:10:06;32.78;;;17.40;;
75506;SDS011;64086;43.220;27.878;2024-02-21T03:12:31;25.85;;;16.73;;
75506;SDS011;64086;43.220;27.878;2024-02-21T03:14:57;29.08;;;16.58;;
75506;SDS011;64086;43.220;27.878;2024-02-21T03:17:22;28.67;;;15.45;;
75506;SDS011;64086;43.220;27.878;2024-02-21T03:19:48;32.25;;;17.38;;
75506;SDS011;64086;43.220;27.878;2024-02-21T03:22:15;29.30;;;16.38;;
75506;SDS011;64086;43.220;27.878;2024-02-21T03:24:41;30.05;;;18.25;;
75506;SDS011;64086;43.220;27.878;2024-02-21T03:27:07;24.25;;;16.15;;
75506;SDS011;64086;43.220;27.878;2024-02-21T03:29:33;25.27;;;16.15;;
75506;SDS011;64086;43.220;27.878;2024-02-21T03:31:58;27.27;;;16.20;;
75506;SDS011;64086;43.220;27.878;2024-02-21T03:34:24;23.00;;;16.10;;
75506;SDS011;64086;43.220;27.878;2024-02-21T03:36:49;26.58;;;16.63;;
75506;SDS011;64086;43.220;27.878;2024-02-21T03:39:15;22.67;;;15.60;;
75506;SDS011;64086;43.220;27.878;2024-02-21T03:41:40;21.63;;;16.75;;
75506;SDS011;64086;43.220;27.878;2024-02-21T03:44:06;25.45;;;15.90;;
75506;SDS011;64086;43.220;27.878;2024-02-21T03:46:31;25.52;;;16.48;;
75506;SDS011;64086;43.220;27.878;2024-02-21T03:48:57;24.98;;;16.58;;
75506;SDS011;64086;43.220;27.878;2024-02-21T03:51:22;24.85;;;16.50;;
75506;SDS011;64086;43.220;27.878;2024-02-21T03:53:48;26.33;;;17.08;;
75506;SDS011;64086;43.220;27.878;2024-02-21T03:56:13;23.95;;;16.17;;
75506;SDS011;64086;43.220;27.878;2024-02-21T03:58:39;27.95;;;15.88;;
75506;SDS011;64086;43.220;27.878;2024-02-21T04:01:04;28.50;;;16.75;;
75506;SDS011;64086;43.220;27.878;2024-02-21T04:03:30;26.90;;;17.17;;
75506;SDS011;64086;43.220;27.878;2024-02-21T04:05:56;23.23;;;15.85;;
75506;SDS011;64086;43.220;27.878;2024-02-21T04:08:22;23.73;;;15.65;;
75506;SDS011;64086;43.220;27.878;2024-02-21T04:10:48;23.42;;;15.68;;
75506;SDS011;64086;43.220;27.878;2024-02-21T04:13:13;25.48;;;16.08;;
75506;SDS011;64086;43.220;27.878;2024-02-21T04:15:39;24.05;;;16.13;;
75506;SDS011;64086;43.220;27.878;2024-02-21T04:18:05;21.73;;;14.35;;
75506;SDS011;64086;43.220;27.878;2024-02-21T04:20:30;23.85;;;15.15;;
75506;SDS011;64086;43.220;27.878;2024-02-21T04:22:57;21.80;;;14.63;;
75506;SDS011;64086;43.220;27.878;2024-02-21T04:25:22;23.70;;;15.88;;
75506;SDS011;64086;43.220;27.878;2024-02-21T04:27:48;28.45;;;17.70;;
75506;SDS011;64086;43.220;27.878;2024-02-21T04:30:13;22.38;;;15.60;;
75506;SDS011;64086;43.220;27.878;2024-02-21T04:32:39;23.73;;;14.23;;
75506;SDS011;64086;43.220;27.878;2024-02-21T04:35:06;20.75;;;12.90;;
75506;SDS011;64086;43.220;27.878;2024-02-21T04:37:32;20.20;;;13.27;;
75506;SDS011;64086;43.220;27.878;2024-02-21T04:39:57;19.42;;;13.82;;
75506;SDS011;64086;43.220;27.878;2024-02-21T04:42:23;20.30;;;13.88;;
75506;SDS011;64086;43.220;27.878;2024-02-21T04:44:48;24.23;;;15.63;;
75506;SDS011;64086;43.220;27.878;2024-02-21T04:47:14;25.25;;;16.90;;
75506;SDS011;64086;43.220;27.878;2024-02-21T04:49:39;30.27;;;19.75;;
75506;SDS011;64086;43.220;27.878;2024-02-21T04:52:05;30.17;;;20.35;;
75506;SDS011;64086;43.220;27.878;2024-02-21T04:54:30;31.58;;;22.02;;
75506;SDS011;64086;43.220;27.878;2024-02-21T04:56:56;32.03;;;23.27;;
75506;SDS011;64086;43.220;27.878;2024-02-21T04:59:21;40.97;;;25.05;;
75506;SDS011;64086;43.220;27.878;2024-02-21T05:01:47;34.88;;;21.45;;
75506;SDS011;64086;43.220;27.878;2024-02-21T05:04:13;34.03;;;23.63;;
75506;SDS011;64086;43.220;27.878;2024-02-21T05:06:38;36.10;;;25.02;;
75506;SDS011;64086;43.220;27.878;2024-02-21T05:09:05;39.05;;;26.75;;
75506;SDS011;64086;43.220;27.878;2024-02-21T05:11:31;35.97;;;25.58;;
75506;SDS011;64086;43.220;27.878;2024-02-21T05:13:57;43.78;;;27.95;;
75506;SDS011;64086;43.220;27.878;2024-02-21T05:16:22;45.30;;;29.58;;
75506;SDS011;64086;43.220;27.878;2024-02-21T05:18:48;42.08;;;28.83;;
75506;SDS011;64086;43.220;27.878;2024-02-21T05:21:13;42.95;;;29.10;;
75506;SDS011;64086;43.220;27.878;2024-02-21T05:23:39;44.22;;;29.50;;
75506;SDS011;64086;43.220;27.878;2024-02-21T05:26:05;43.63;;;29.85;;
75506;SDS011;64086;43.220;27.878;2024-02-21T05:28:31;44.92;;;29.67;;
75506;SDS011;64086;43.220;27.878;2024-02-21T05:30:56;43.00;;;29.25;;
75506;SDS011;64086;43.220;27.878;2024-02-21T05:33:22;41.10;;;27.73;;
75506;SDS011;64086;43.220;27.878;2024-02-21T05:35:49;43.38;;;28.48;;
75506;SDS011;64086;43.220;27.878;2024-02-21T05:38:15;44.45;;;28.33;;
75506;SDS011;64086;43.220;27.878;2024-02-21T05:40:41;45.60;;;28.70;;
75506;SDS011;64086;43.220;27.878;2024-02-21T05:43:09;42.58;;;29.15;;
75506;SDS011;64086;43.220;27.878;2024-02-21T05:45:35;46.42;;;29.52;;
75506;SDS011;64086;43.220;27.878;2024-02-21T05:48:00;39.22;;;27.20;;
75506;SDS011;64086;43.220;27.878;2024-02-21T05:50:27;39.97;;;26.65;;
75506;SDS011;64086;43.220;27.878;2024-02-21T05:52:56;38.88;;;26.88;;
75506;SDS011;64086;43.220;27.878;2024-02-21T05:55:22;41.00;;;24.90;;
75506;SDS011;64086;43.220;27.878;2024-02-21T05:57:48;34.35;;;23.50;;
75506;SDS011;64086;43.220;27.878;2024-02-21T06:00:14;34.38;;;23.95;;
75506;SDS011;64086;43.220;27.878;2024-02-21T06:02:40;31.92;;;22.42;;
75506;SDS011;64086;43.220;27.878;2024-02-21T06:05:06;33.65;;;22.65;;
75506;SDS011;64086;43.220;27.878;2024-02-21T06:07:32;36.88;;;22.67;;
75506;SDS011;64086;43.220;27.878;2024-02-21T06:09:58;30.40;;;22.45;;
75506;SDS011;64086;43.220;27.878;2024-02-21T06:12:24;41.80;;;27.25;;
75506;SDS011;64086;43.220;27.878;2024-02-21T06:14:50;44.83;;;30.90;;
75506;SDS011;64086;43.220;27.878;2024-02-21T06:17:15;48.75;;;32.08;;
75506;SDS011;64086;43.220;27.878;2024-02-21T06:19:42;56.75;;;34.92;;
75506;SDS011;64086;43.220;27.878;2024-02-21T06:22:08;58.60;;;36.42;;
75506;SDS011;64086;43.220;27.878;2024-02-21T06:24:34;54.63;;;36.22;;
75506;SDS011;64086;43.220;27.878;2024-02-21T06:27:03;59.67;;;38.03;;
75506;SDS011;64086;43.220;27.878;2024-02-21T06:29:29;56.92;;;38.53;;
75506;SDS011;64086;43.220;27.878;2024-02-21T06:31:54;60.78;;;42.75;;
75506;SDS011;64086;43.220;27.878;2024-02-21T06:34:20;66.38;;;43.40;;
75506;SDS011;64086;43.220;27.878;2024-02-21T06:36:45;69.72;;;47.10;;
75506;SDS011;64086;43.220;27.878;2024-02-21T06:39:11;85.03;;;56.30;;
75506;SDS011;64086;43.220;27.878;2024-02-21T06:41:37;97.97;;;63.92;;
75506;SDS011;64086;43.220;27.878;2024-02-21T06:44:02;100.68;;;67.10;;
75506;SDS011;64086;43.220;27.878;2024-02-21T06:46:28;110.40;;;74.07;;
75506;SDS011;64086;43.220;27.878;2024-02-21T06:48:54;117.30;;;80.18;;
75506;SDS011;64086;43.220;27.878;2024-02-21T06:51:23;109.85;;;76.00;;
75506;SDS011;64086;43.220;27.878;2024-02-21T06:53:50;92.20;;;66.32;;
75506;SDS011;64086;43.220;27.878;2024-02-21T06:56:15;90.70;;;60.90;;
75506;SDS011;64086;43.220;27.878;2024-02-21T06:58:41;79.93;;;56.20;;
75506;SDS011;64086;43.220;27.878;2024-02-21T07:01:07;75.10;;;53.60;;
75506;SDS011;64086;43.220;27.878;2024-02-21T07:03:32;75.45;;;53.35;;
75506;SDS011;64086;43.220;27.878;2024-02-21T07:05:58;74.60;;;51.03;;
75506;SDS011;64086;43.220;27.878;2024-02-21T07:08:23;68.20;;;48.50;;
75506;SDS011;64086;43.220;27.878;2024-02-21T07:10:49;57.70;;;43.05;;
75506;SDS011;64086;43.220;27.878;2024-02-21T07:13:14;52.67;;;40.08;;
75506;SDS011;64086;43.220;27.878;2024-02-21T07:15:41;48.83;;;38.58;;
75506;SDS011;64086;43.220;27.878;2024-02-21T07:18:06;58.30;;;40.95;;
75506;SDS011;64086;43.220;27.878;2024-02-21T07:20:32;52.60;;;39.50;;
75506;SDS011;64086;43.220;27.878;2024-02-21T07:23:02;51.65;;;37.40;;
75506;SDS011;64086;43.220;27.878;2024-02-21T07:25:28;46.40;;;36.03;;
75506;SDS011;64086;43.220;27.878;2024-02-21T07:27:55;46.88;;;35.25;;
75506;SDS011;64086;43.220;27.878;2024-02-21T07:30:20;44.22;;;34.80;;
75506;SDS011;64086;43.220;27.878;2024-02-21T07:32:48;44.95;;;34.17;;
75506;SDS011;64086;43.220;27.878;2024-02-21T07:35:15;41.88;;;32.67;;
75506;SDS011;64086;43.220;27.878;2024-02-21T07:37:40;41.63;;;32.75;;
75506;SDS011;64086;43.220;27.878;2024-02-21T07:40:06;40.78;;;32.65;;
75506;SDS011;64086;43.220;27.878;2024-02-21T07:42:32;44.15;;;33.58;;
75506;SDS011;64086;43.220;27.878;2024-02-21T07:44:58;41.58;;;32.85;;
75506;SDS011;64086;43.220;27.878;2024-02-21T07:47:23;43.30;;;33.03;;
75506;SDS011;64086;43.220;27.878;2024-02-21T07:49:49;43.17;;;33.20;;
75506;SDS011;64086;43.220;27.878;2024-02-21T07:52:15;39.92;;;33.15;;
75506;SDS011;64086;43.220;27.878;2024-02-21T07:54:40;44.08;;;34.05;;
75506;SDS011;64086;43.220;27.878;2024-02-21T07:57:07;44.50;;;35.70;;
75506;SDS011;64086;43.220;27.878;2024-02-21T07:59:32;47.28;;;38.22;;
75506;SDS011;64086;43.220;27.878;2024-02-21T08:01:58;48.75;;;37.00;;
75506;SDS011;64086;43.220;27.878;2024-02-21T08:04:24;47.47;;;36.75;;
75506;SDS011;64086;43.220;27.878;2024-02-21T08:06:56;47.10;;;34.33;;
75506;SDS011;64086;43.220;27.878;2024-02-21T08:09:24;42.92;;;32.40;;
75506;SDS011;64086;43.220;27.878;2024-02-21T08:11:49;42.47;;;30.55;;
75506;SDS011;64086;43.220;27.878;2024-02-21T08:14:15;40.50;;;30.45;;
75506;SDS011;64086;43.220;27.878;2024-02-21T08:16:41;38.75;;;29.40;;
75506;SDS011;64086;43.220;27.878;2024-02-21T08:19:07;45.05;;;29.80;;
75506;SDS011;64086;43.220;27.878;2024-02-21T08:21:33;39.33;;;28.38;;
75506;SDS011;64086;43.220;27.878;2024-02-21T08:23:58;33.22;;;25.33;;
75506;SDS011;64086;43.220;27.878;2024-02-21T08:26:24;31.40;;;25.27;;
75506;SDS011;64086;43.220;27.878;2024-02-21T08:28:52;31.70;;;24.67;;
75506;SDS011;64086;43.220;27.878;2024-02-21T08:31:21;31.52;;;25.50;;
75506;SDS011;64086;43.220;27.878;2024-02-21T08:33:48;30.92;;;25.42;;
75506;SDS011;64086;43.220;27.878;2024-02-21T08:36:17;30.38;;;25.45;;
75506;SDS011;64086;43.220;27.878;2024-02-21T08:38:44;31.20;;;25.48;;
75506;SDS011;64086;43.220;27.878;2024-02-21T08:41:10;29.65;;;25.58;;
75506;SDS011;64086;43.220;27.878;2024-02-21T08:43:35;31.45;;;26.25;;
75506;SDS011;64086;43.220;27.878;2024-02-21T08:46:01;31.10;;;25.98;;
75506;SDS011;64086;43.220;27.878;2024-02-21T08:48:26;31.80;;;25.73;;
75506;SDS011;64086;43.220;27.878;2024-02-21T08:50:52;31.40;;;28.13;;
75506;SDS011;64086;43.220;27.878;2024-02-21T08:53:19;35.45;;;31.10;;
75506;SDS011;64086;43.220;27.878;2024-02-21T08:55:45;37.65;;;32.88;;
75506;SDS011;64086;43.220;27.878;2024-02-21T08:58:11;32.53;;;29.05;;
75506;SDS011;64086;43.220;27.878;2024-02-21T09:00:36;32.13;;;28.67;;
75506;SDS011;64086;43.220;27.878;2024-02-21T09:03:02;38.58;;;33.75;;
75506;SDS011;64086;43.220;27.878;2024-02-21T09:05:28;45.10;;;39.20;;
75506;SDS011;64086;43.220;27.878;2024-02-21T09:07:54;44.75;;;36.15;;
75506;SDS011;64086;43.220;27.878;2024-02-21T09:10:20;43.38;;;33.97;;
75506;SDS011;64086;43.220;27.878;2024-02-21T09:12:46;36.70;;;32.70;;
75506;SDS011;64086;43.220;27.878;2024-02-21T09:15:12;41.03;;;32.30;;
75506;SDS011;64086;43.220;27.878;2024-02-21T09:17:38;34.63;;;30.67;;
75506;SDS011;64086;43.220;27.878;2024-02-21T09:20:04;33.00;;;28.83;;
75506;SDS011;64086;43.220;27.878;2024-02-21T09:22:31;35.17;;;30.30;;
75506;SDS011;64086;43.220;27.878;2024-02-21T09:24:59;36.20;;;29.30;;
75506;SDS011;64086;43.220;27.878;2024-02-21T09:27:25;35.55;;;31.60;;
75506;SDS011;64086;43.220;27.878;2024-02-21T09:29:51;33.88;;;30.13;;
75506;SDS011;64086;43.220;27.878;2024-02-21T09:32:17;31.33;;;27.80;;
75506;SDS011;64086;43.220;27.878;2024-02-21T09:34:44;31.70;;;27.92;;
75506;SDS011;64086;43.220;27.878;2024-02-21T09:37:10;33.35;;;28.27;;
75506;SDS011;64086;43.220;27.878;2024-02-21T09:39:36;32.38;;;26.25;;
75506;SDS011;64086;43.220;27.878;2024-02-21T09:42:05;27.55;;;24.67;;
75506;SDS011;64086;43.220;27.878;2024-02-21T09:44:37;31.00;;;26.77;;
75506;SDS011;64086;43.220;27.878;2024-02-21T09:49:46;30.27;;;27.02;;
75506;SDS011;64086;43.220;27.878;2024-02-21T09:52:12;37.40;;;29.38;;
75506;SDS011;64086;43.220;27.878;2024-02-21T09:54:39;30.38;;;27.05;;
75506;SDS011;64086;43.220;27.878;2024-02-21T09:57:06;29.02;;;25.08;;
75506;SDS011;64086;43.220;27.878;2024-02-21T09:59:33;30.25;;;24.88;;
75506;SDS011;64086;43.220;27.878;2024-02-21T10:01:59;28.35;;;25.30;;
75506;SDS011;64086;43.220;27.878;2024-02-21T10:04:25;27.80;;;24.77;;
75506;SDS011;64086;43.220;27.878;2024-02-21T10:06:51;28.17;;;25.13;;
75506;SDS011;64086;43.220;27.878;2024-02-21T10:09:26;29.65;;;24.80;;
75506;SDS011;64086;43.220;27.878;2024-02-21T10:11:55;24.38;;;20.13;;
75506;SDS011;64086;43.220;27.878;2024-02-21T10:14:21;24.02;;;19.05;;
75506;SDS011;64086;43.220;27.878;2024-02-21T10:16:47;25.50;;;19.35;;
75506;SDS011;64086;43.220;27.878;2024-02-21T10:19:20;21.92;;;18.60;;
75506;SDS011;64086;43.220;27.878;2024-02-21T10:21:59;25.55;;;20.13;;
75506;SDS011;64086;43.220;27.878;2024-02-21T10:24:34;24.45;;;18.80;;
75506;SDS011;64086;43.220;27.878;2024-02-21T10:27:03;22.95;;;19.48;;
75506;SDS011;64086;43.220;27.878;2024-02-21T10:29:33;26.25;;;20.55;;
75506;SDS011;64086;43.220;27.878;2024-02-21T10:32:08;28.48;;;19.42;;
75506;SDS011;64086;43.220;27.878;2024-02-21T10:34:36;26.80;;;20.95;;
75506;SDS011;64086;43.220;27.878;2024-02-21T10:37:02;25.92;;;20.10;;
75506;SDS011;64086;43.220;27.878;2024-02-21T10:39:29;28.83;;;20.80;;
75506;SDS011;64086;43.220;27.878;2024-02-21T10:41:56;29.05;;;22.67;;
75506;SDS011;64086;43.220;27.878;2024-02-21T10:44:26;28.67;;;23.42;;
75506;SDS011;64086;43.220;27.878;2024-02-21T10:46:54;30.83;;;23.50;;
75506;SDS011;64086;43.220;27.878;2024-02-21T10:49:22;28.85;;;21.90;;
75506;SDS011;64086;43.220;27.878;2024-02-21T10:52:00;29.67;;;21.42;;
75506;SDS011;64086;43.220;27.878;2024-02-21T10:54:53;29.95;;;21.80;;
75506;SDS011;64086;43.220;27.878;2024-02-21T10:57:22;29.30;;;23.60;;
75506;SDS011;64086;43.220;27.878;2024-02-21T10:59:48;31.70;;;24.10;;
75506;SDS011;64086;43.220;27.878;2024-02-21T11:02:14;26.55;;;22.08;;
75506;SDS011;64086;43.220;27.878;2024-02-21T11:04:40;29.90;;;23.02;;
75506;SDS011;64086;43.220;27.878;2024-02-21T11:07:06;28.90;;;22.50;;
75506;SDS011;64086;43.220;27.878;2024-02-21T11:09:32;29.05;;;23.23;;
75506;SDS011;64086;43.220;27.878;2024-02-21T11:11:58;32.72;;;25.33;;
75506;SDS011;64086;43.220;27.878;2024-02-21T11:14:28;31.75;;;25.45;;
75506;SDS011;64086;43.220;27.878;2024-02-21T11:16:57;33.83;;;25.63;;
75506;SDS011;64086;43.220;27.878;2024-02-21T11:19:24;34.70;;;26.88;;
75506;SDS011;64086;43.220;27.878;2024-02-21T11:21:51;34.85;;;27.13;;
75506;SDS011;64086;43.220;27.878;2024-02-21T11:24:29;32.40;;;25.08;;
75506;SDS011;64086;43.220;27.878;2024-02-21T11:26:56;32.25;;;24.38;;
75506;SDS011;64086;43.220;27.878;2024-02-21T11:29:44;35.50;;;24.63;;
75506;SDS011;64086;43.220;27.878;2024-02-21T11:32:14;35.70;;;24.13;;
75506;SDS011;64086;43.220;27.878;2024-02-21T11:34:41;33.80;;;23.95;;
75506;SDS011;64086;43.220;27.878;2024-02-21T11:37:15;32.67;;;23.50;;
75506;SDS011;64086;43.220;27.878;2024-02-21T11:39:41;32.28;;;22.83;;
75506;SDS011;64086;43.220;27.878;2024-02-21T11:42:07;31.08;;;22.42;;
75506;SDS011;64086;43.220;27.878;2024-02-21T11:44:34;32.83;;;23.38;;
75506;SDS011;64086;43.220;27.878;2024-02-21T11:47:07;33.35;;;23.50;;
75506;SDS011;64086;43.220;27.878;2024-02-21T11:49:37;31.67;;;22.05;;
75506;SDS011;64086;43.220;27.878;2024-02-21T11:52:06;35.80;;;23.57;;
75506;SDS011;64086;43.220;27.878;2024-02-21T11:54:32;32.90;;;22.23;;
75506;SDS011;64086;43.220;27.878;2024-02-21T11:56:58;29.98;;;21.20;;
75506;SDS011;64086;43.220;27.878;2024-02-21T11:59:24;28.88;;;21.70;;
75506;SDS011;64086;43.220;27.878;2024-02-21T12:01:50;32.13;;;22.95;;
75506;SDS011;64086;43.220;27.878;2024-02-21T12:04:17;30.52;;;21.73;;
75506;SDS011;64086;43.220;27.878;2024-02-21T12:06:44;28.83;;;20.98;;
75506;SDS011;64086;43.220;27.878;2024-02-21T12:09:13;26.95;;;19.85;;
75506;SDS011;64086;43.220;27.878;2024-02-21T12:11:40;29.02;;;20.20;;
75506;SDS011;64086;43.220;27.878;2024-02-21T12:14:06;30.35;;;20.40;;
75506;SDS011;64086;43.220;27.878;2024-02-21T12:16:32;28.42;;;20.65;;
75506;SDS011;64086;43.220;27.878;2024-02-21T12:18:58;31.30;;;20.42;;
75506;SDS011;64086;43.220;27.878;2024-02-21T12:21:24;32.00;;;20.67;;
75506;SDS011;64086;43.220;27.878;2024-02-21T12:23:53;30.65;;;20.92;;
75506;SDS011;64086;43.220;27.878;2024-02-21T12:26:18;29.63;;;21.30;;
75506;SDS011;64086;43.220;27.878;2024-02-21T12:28:44;26.17;;;19.40;;
75506;SDS011;64086;43.220;27.878;2024-02-21T12:31:09;30.15;;;20.95;;
75506;SDS011;64086;43.220;27.878;2024-02-21T12:33:35;26.33;;;20.30;;
75506;SDS011;64086;43.220;27.878;2024-02-21T12:36:00;26.13;;;19.17;;
75506;SDS011;64086;43.220;27.878;2024-02-21T12:38:26;28.23;;;21.17;;
75506;SDS011;64086;43.220;27.878;2024-02-21T12:40:51;27.13;;;20.45;;
75506;SDS011;64086;43.220;27.878;2024-02-21T12:43:17;32.47;;;20.65;;
75506;SDS011;64086;43.220;27.878;2024-02-21T12:45:43;30.70;;;19.13;;
75506;SDS011;64086;43.220;27.878;2024-02-21T12:48:09;25.13;;;19.75;;
75506;SDS011;64086;43.220;27.878;2024-02-21T12:50:34;27.80;;;19.83;;
75506;SDS011;64086;43.220;27.878;2024-02-21T12:53:00;26.38;;;18.92;;
75506;SDS011;64086;43.220;27.878;2024-02-21T12:55:26;26.85;;;19.90;;
75506;SDS011;64086;43.220;27.878;2024-02-21T12:57:52;29.27;;;20.60;;
75506;SDS011;64086;43.220;27.878;2024-02-21T13:00:17;28.92;;;20.52;;
75506;SDS011;64086;43.220;27.878;2024-02-21T13:02:43;30.05;;;20.20;;
75506;SDS011;64086;43.220;27.878;2024-02-21T13:05:08;29.85;;;21.45;;
75506;SDS011;64086;43.220;27.878;2024-02-21T13:07:34;28.45;;;20.27;;
75506;SDS011;64086;43.220;27.878;2024-02-21T13:09:59;27.67;;;19.95;;
75506;SDS011;64086;43.220;27.878;2024-02-21T13:12:25;29.35;;;21.33;;
75506;SDS011;64086;43.220;27.878;2024-02-21T13:14:55;29.02;;;21.65;;
75506;SDS011;64086;43.220;27.878;2024-02-21T13:17:20;30.10;;;21.20;;
75506;SDS011;64086;43.220;27.878;2024-02-21T13:19:47;29.38;;;21.77;;
75506;SDS011;64086;43.220;27.878;2024-02-21T13:22:13;27.33;;;20.40;;
75506;SDS011;64086;43.220;27.878;2024-02-21T13:24:38;29.98;;;20.48;;
75506;SDS011;64086;43.220;27.878;2024-02-21T13:27:04;29.48;;;19.45;;
75506;SDS011;64086;43.220;27.878;2024-02-21T13:29:29;28.52;;;20.15;;
75506;SDS011;64086;43.220;27.878;2024-02-21T13:31:55;26.67;;;19.80;;
75506;SDS011;64086;43.220;27.878;2024-02-21T13:34:20;28.75;;;19.88;;
75506;SDS011;64086;43.220;27.878;2024-02-21T13:36:46;24.55;;;17.60;;
75506;SDS011;64086;43.220;27.878;2024-02-21T13:39:11;26.42;;;17.88;;
75506;SDS011;64086;43.220;27.878;2024-02-21T13:41:40;28.13;;;17.35;;
75506;SDS011;64086;43.220;27.878;2024-02-21T13:44:09;28.27;;;17.25;;
75506;SDS011;64086;43.220;27.878;2024-02-21T13:46:34;22.95;;;15.93;;
75506;SDS011;64086;43.220;27.878;2024-02-21T13:49:04;24.95;;;16.73;;
75506;SDS011;64086;43.220;27.878;2024-02-21T13:51:33;23.67;;;16.20;;
75506;SDS011;64086;43.220;27.878;2024-02-21T13:54:01;26.00;;;17.33;;
75506;SDS011;64086;43.220;27.878;2024-02-21T13:56:28;25.60;;;16.88;;
75506;SDS011;64086;43.220;27.878;2024-02-21T13:58:54;25.85;;;16.88;;
75506;SDS011;64086;43.220;27.878;2024-02-21T14:01:20;24.73;;;17.15;;
75506;SDS011;64086;43.220;27.878;2024-02-21T14:03:45;24.60;;;17.08;;
75506;SDS011;64086;43.220;27.878;2024-02-21T14:06:11;25.67;;;17.63;;